createdAt,value
2018-10-16T00:00:41.867Z,13.11
2018-10-16T00:03:10.749Z,13.21
2018-10-16T00:05:39.682Z,13.32
2018-10-16T00:08:10.211Z,13.35
2018-10-16T00:10:39.111Z,13.35
2018-10-16T00:13:09.755Z,13.33
2018-10-16T00:15:38.739Z,13.25
2018-10-16T00:18:09.116Z,13.23
2018-10-16T00:20:38.083Z,13.07
2018-10-16T00:23:07.515Z,13.08
2018-10-16T00:25:36.415Z,12.98
2018-10-16T00:28:05.724Z,12.90
2018-10-16T00:30:34.580Z,12.89
2018-10-16T00:33:03.506Z,12.60
2018-10-16T00:35:32.388Z,12.58
2018-10-16T00:38:01.328Z,12.50
2018-10-16T00:40:30.259Z,12.56
2018-10-16T00:42:59.219Z,12.60
2018-10-16T00:45:28.107Z,12.72
2018-10-16T00:47:57.050Z,12.70
2018-10-16T00:50:26.067Z,12.76
2018-10-16T00:52:54.925Z,12.96
2018-10-16T00:55:23.762Z,13.02
2018-10-16T00:57:52.691Z,13.03
2018-10-16T01:00:21.595Z,12.81
2018-10-16T01:02:50.555Z,12.74
2018-10-16T01:05:19.584Z,12.57
2018-10-16T01:07:48.457Z,12.69
2018-10-16T01:10:17.432Z,12.68
2018-10-16T01:12:47.304Z,12.69
2018-10-16T01:15:16.294Z,12.70
2018-10-16T01:17:45.223Z,12.71
2018-10-16T01:20:14.977Z,12.67
2018-10-16T01:22:44.264Z,12.59
2018-10-16T01:25:13.867Z,12.53
2018-10-16T01:27:42.757Z,12.49
2018-10-16T01:30:11.769Z,12.44
2018-10-16T01:32:40.732Z,12.49
2018-10-16T01:35:11.319Z,12.38
2018-10-16T01:37:40.278Z,12.14
2018-10-16T01:40:10.454Z,12.34
2018-10-16T01:42:39.406Z,12.37
2018-10-16T01:45:09.187Z,12.47
2018-10-16T01:47:38.164Z,12.58
2018-10-16T01:50:07.523Z,12.75
2018-10-16T01:52:36.528Z,12.63
2018-10-16T01:55:05.541Z,12.54
2018-10-16T01:57:34.431Z,12.79
2018-10-16T02:00:03.640Z,12.70
2018-10-16T02:02:32.596Z,12.93
2018-10-16T02:05:01.516Z,12.99
2018-10-16T02:07:30.382Z,12.97
2018-10-16T02:09:59.400Z,12.85
2018-10-16T02:12:28.299Z,12.79
2018-10-16T02:14:57.172Z,12.89
2018-10-16T02:17:25.997Z,12.93
2018-10-16T02:19:54.851Z,12.92
2018-10-16T02:22:23.791Z,12.86
2018-10-16T02:24:52.695Z,12.87
2018-10-16T02:27:21.526Z,12.97
2018-10-16T02:29:50.422Z,13.00
2018-10-16T02:32:19.309Z,13.01
2018-10-16T02:34:48.162Z,12.83
2018-10-16T02:37:17.019Z,12.71
2018-10-16T02:39:45.971Z,12.66
2018-10-16T02:42:14.810Z,12.77
2018-10-16T02:44:43.681Z,12.85
2018-10-16T02:47:12.578Z,13.06
2018-10-16T02:49:41.472Z,13.19
2018-10-16T02:52:10.383Z,13.16
2018-10-16T02:54:39.383Z,13.09
2018-10-16T02:57:08.343Z,13.16
2018-10-16T02:59:37.174Z,12.94
2018-10-16T03:02:07.019Z,12.76
2018-10-16T03:04:35.955Z,12.77
2018-10-16T03:07:06.419Z,12.80
2018-10-16T03:09:35.400Z,12.79
2018-10-16T03:12:04.280Z,13.11
2018-10-16T03:14:34.475Z,13.39
2018-10-16T03:17:03.440Z,13.31
2018-10-16T03:19:32.477Z,12.96
2018-10-16T03:22:01.469Z,12.86
2018-10-16T03:24:30.527Z,12.82
2018-10-16T03:26:59.466Z,13.08
2018-10-16T03:29:28.356Z,13.04
2018-10-16T03:31:57.511Z,13.01
2018-10-16T03:34:26.353Z,13.03
2018-10-16T03:36:55.251Z,12.90
2018-10-16T03:39:24.139Z,12.50
2018-10-16T03:41:53.068Z,12.20
2018-10-16T03:44:22.018Z,11.94
2018-10-16T03:46:50.910Z,11.75
2018-10-16T03:49:19.779Z,11.73
2018-10-16T03:51:48.659Z,11.91
2018-10-16T03:54:17.599Z,11.84
2018-10-16T03:56:46.483Z,11.86
2018-10-16T03:59:15.345Z,11.76
2018-10-16T04:01:44.318Z,11.70
2018-10-16T04:04:13.176Z,11.83
2018-10-16T04:06:42.112Z,11.61
2018-10-16T04:09:11.050Z,11.55
2018-10-16T04:11:39.968Z,11.59
2018-10-16T04:14:08.982Z,11.45
2018-10-16T04:16:37.883Z,11.39
2018-10-16T04:19:07.142Z,11.45
2018-10-16T04:21:40.205Z,11.52
2018-10-16T04:24:09.185Z,11.57
2018-10-16T04:26:38.107Z,11.52
2018-10-16T04:29:07.518Z,11.59
2018-10-16T04:31:36.406Z,11.62
2018-10-16T04:34:05.516Z,11.58
2018-10-16T04:36:35.803Z,11.57
2018-10-16T04:39:06.398Z,11.46
2018-10-16T04:41:35.276Z,11.42
2018-10-16T04:44:04.312Z,11.52
2018-10-16T04:46:33.278Z,11.54
2018-10-16T04:49:02.206Z,11.51
2018-10-16T04:51:31.116Z,11.50
2018-10-16T04:54:00.151Z,11.52
2018-10-16T04:56:29.560Z,11.47
2018-10-16T04:58:58.386Z,11.52
2018-10-16T05:01:27.292Z,11.61
2018-10-16T05:03:56.272Z,11.66
2018-10-16T05:06:25.107Z,11.66
2018-10-16T05:08:54.006Z,11.61
2018-10-16T05:11:22.952Z,11.61
2018-10-16T05:13:51.991Z,11.47
2018-10-16T05:16:20.929Z,11.44
2018-10-16T05:18:49.846Z,11.39
2018-10-16T05:21:18.724Z,11.57
2018-10-16T05:23:47.698Z,11.59
2018-10-16T05:26:16.725Z,11.75
2018-10-16T05:28:45.575Z,11.81
2018-10-16T05:31:14.560Z,11.82
2018-10-16T05:33:43.509Z,12.04
2018-10-16T05:36:12.475Z,12.23
2018-10-16T05:38:41.461Z,12.40
2018-10-16T05:41:10.400Z,12.59
2018-10-16T05:43:39.397Z,12.75
2018-10-16T05:46:08.326Z,12.90
2018-10-16T05:48:37.275Z,13.04
2018-10-16T05:51:06.384Z,13.12
2018-10-16T05:53:35.283Z,13.42
2018-10-16T05:56:06.378Z,13.51
2018-10-16T05:58:36.175Z,13.62
2018-10-16T06:01:05.471Z,13.72
2018-10-16T06:03:34.450Z,13.89
2018-10-16T06:06:03.408Z,14.05
2018-10-16T06:08:32.458Z,14.15
2018-10-16T06:11:01.383Z,14.33
2018-10-16T06:13:30.251Z,14.41
2018-10-16T06:16:00.650Z,14.49
2018-10-16T06:18:29.710Z,14.65
2018-10-16T06:20:58.631Z,14.71
2018-10-16T06:23:28.835Z,14.73
2018-10-16T06:25:57.753Z,14.88
2018-10-16T06:28:28.314Z,14.93
2018-10-16T06:30:57.292Z,15.07
2018-10-16T06:33:28.074Z,15.27
2018-10-16T06:35:56.935Z,15.32
2018-10-16T06:38:25.851Z,15.24
2018-10-16T06:40:54.962Z,15.39
2018-10-16T06:43:23.790Z,15.46
2018-10-16T06:45:52.719Z,15.54
2018-10-16T06:48:21.832Z,15.63
2018-10-16T06:50:50.584Z,15.78
2018-10-16T06:53:19.707Z,15.72
2018-10-16T06:55:48.768Z,15.86
2018-10-16T06:58:17.616Z,15.91
2018-10-16T07:00:46.576Z,15.83
2018-10-16T07:03:15.443Z,15.70
2018-10-16T07:05:44.267Z,15.75
2018-10-16T07:08:13.208Z,15.63
2018-10-16T07:10:42.154Z,15.92
2018-10-16T07:13:11.078Z,15.89
2018-10-16T07:15:40.043Z,15.71
2018-10-16T07:18:08.971Z,15.75
2018-10-16T07:20:37.870Z,16.02
2018-10-16T07:23:06.875Z,16.29
2018-10-16T07:25:35.711Z,16.47
2018-10-16T07:28:04.879Z,16.54
2018-10-16T07:30:33.782Z,16.60
2018-10-16T07:33:02.742Z,16.47
2018-10-16T07:35:31.638Z,16.75
2018-10-16T07:38:00.932Z,17.03
2018-10-16T07:40:31.487Z,17.15
2018-10-16T07:43:00.360Z,17.10
2018-10-16T07:45:29.314Z,16.89
2018-10-16T07:47:58.280Z,17.29
2018-10-16T07:50:27.227Z,17.51
2018-10-16T07:52:56.193Z,17.61
2018-10-16T07:55:25.200Z,17.84
2018-10-16T07:57:54.259Z,18.04
2018-10-16T08:00:23.195Z,18.12
2018-10-16T08:02:53.545Z,18.11
2018-10-16T08:05:22.606Z,18.17
2018-10-16T08:07:51.456Z,17.93
2018-10-16T08:10:20.414Z,18.00
2018-10-16T08:12:49.320Z,18.01
2018-10-16T08:15:18.220Z,18.02
2018-10-16T08:17:47.193Z,18.11
2018-10-16T08:20:16.078Z,18.10
2018-10-16T08:22:45.017Z,18.09
2018-10-16T08:25:14.128Z,18.25
2018-10-16T08:27:43.074Z,18.34
2018-10-16T08:30:12.235Z,18.04
2018-10-16T08:32:41.063Z,18.14
2018-10-16T08:35:10.049Z,18.30
2018-10-16T08:39:49.469Z,18.51
2018-10-16T08:43:40.311Z,18.34
2018-10-16T08:46:20.184Z,18.33
2018-10-16T08:49:00.698Z,18.79
2018-10-16T08:51:38.438Z,19.10
2018-10-16T08:54:07.823Z,19.35
2018-10-16T08:56:36.795Z,19.47
2018-10-16T08:59:06.015Z,19.54
2018-10-16T09:01:34.960Z,19.70
2018-10-16T09:04:04.333Z,19.68
2018-10-16T09:06:33.735Z,19.60
2018-10-16T09:09:03.888Z,19.68
2018-10-16T09:11:32.802Z,19.77
2018-10-16T09:14:01.943Z,19.79
2018-10-16T09:16:30.822Z,19.89
2018-10-16T09:18:59.800Z,20.00
2018-10-16T09:21:28.857Z,20.18
2018-10-16T09:23:57.918Z,20.32
2018-10-16T09:26:27.017Z,20.53
2018-10-16T09:28:55.971Z,20.52
2018-10-16T09:31:25.011Z,20.46
2018-10-16T09:33:53.988Z,20.41
2018-10-16T09:36:22.965Z,20.43
2018-10-16T09:38:52.306Z,20.32
2018-10-16T09:41:21.209Z,20.34
2018-10-16T09:43:50.404Z,20.32
2018-10-16T09:46:19.538Z,20.06
2018-10-16T09:48:48.696Z,20.25
2018-10-16T09:51:19.697Z,20.41
2018-10-16T09:53:48.729Z,20.59
2018-10-16T09:56:17.857Z,20.63
2018-10-16T09:58:46.912Z,20.53
2018-10-16T10:01:21.147Z,20.57
2018-10-16T10:03:50.374Z,20.66
2018-10-16T10:06:19.385Z,20.72
2018-10-16T10:08:48.465Z,20.82
2018-10-16T10:11:17.522Z,20.93
2018-10-16T10:13:46.638Z,20.95
2018-10-16T10:16:15.589Z,20.85
2018-10-16T10:18:44.614Z,20.88
2018-10-16T10:21:13.627Z,21.37
2018-10-16T10:23:42.608Z,21.41
2018-10-16T10:26:11.573Z,21.39
2018-10-16T10:28:40.459Z,21.40
2018-10-16T10:31:09.431Z,21.35
2018-10-16T10:33:38.430Z,21.05
2018-10-16T10:36:07.343Z,21.05
2018-10-16T10:38:36.466Z,21.05
2018-10-16T10:41:05.601Z,21.00
2018-10-16T10:43:34.699Z,21.10
2018-10-16T10:46:03.712Z,21.16
2018-10-16T10:48:32.747Z,21.17
2018-10-16T10:51:01.845Z,21.27
2018-10-16T10:53:30.595Z,21.42
2018-10-16T10:56:00.888Z,21.66
2018-10-16T10:58:29.895Z,21.90
2018-10-16T11:01:00.921Z,21.68
2018-10-16T11:03:29.936Z,21.70
2018-10-16T11:05:58.781Z,21.39
2018-10-16T11:08:27.691Z,21.30
2018-10-16T11:10:57.811Z,21.57
2018-10-16T11:13:28.210Z,21.88
2018-10-16T11:15:57.375Z,21.79
2018-10-16T11:18:26.367Z,21.44
2018-10-16T11:20:55.403Z,21.25
2018-10-16T11:23:26.104Z,21.23
2018-10-16T11:25:55.424Z,21.56
2018-10-16T11:28:24.475Z,21.74
2018-10-16T11:30:53.674Z,21.87
2018-10-16T11:33:22.803Z,21.67
2018-10-16T11:35:51.882Z,21.72
2018-10-16T11:38:20.890Z,21.67
2018-10-16T11:40:49.970Z,21.78
2018-10-16T11:43:18.944Z,22.11
2018-10-16T11:45:48.097Z,21.89
2018-10-16T11:48:17.031Z,21.89
2018-10-16T11:50:46.062Z,21.63
2018-10-16T11:53:15.046Z,22.03
2018-10-16T11:55:44.009Z,22.10
2018-10-16T11:58:12.989Z,22.23
2018-10-16T12:00:41.937Z,22.18
2018-10-16T12:03:10.873Z,22.50
2018-10-16T12:05:39.915Z,22.43
2018-10-16T12:08:09.080Z,22.31
2018-10-16T12:10:37.990Z,22.52
2018-10-16T12:13:06.962Z,22.53
2018-10-16T12:15:36.172Z,22.35
2018-10-16T12:18:11.618Z,22.23
2018-10-16T12:20:46.116Z,22.42
2018-10-16T12:23:15.017Z,22.50
2018-10-16T12:25:45.212Z,22.52
2018-10-16T12:28:14.257Z,22.21
2018-10-16T12:30:43.180Z,22.13
2018-10-16T12:33:12.183Z,22.19
2018-10-16T12:35:41.155Z,22.39
2018-10-16T12:38:10.072Z,22.42
2018-10-16T12:40:39.030Z,22.12
2018-10-16T12:43:08.013Z,22.37
2018-10-16T12:45:37.023Z,22.30
2018-10-16T12:48:06.069Z,22.06
2018-10-16T12:50:35.003Z,21.68
2018-10-16T12:53:04.156Z,21.72
2018-10-16T12:55:33.159Z,21.89
2018-10-16T12:58:02.293Z,21.61
2018-10-16T13:00:31.402Z,21.73
2018-10-16T13:03:00.447Z,21.92
2018-10-16T13:05:29.420Z,21.92
2018-10-16T13:07:58.471Z,21.94
2018-10-16T13:10:27.462Z,21.90
2018-10-16T13:12:56.460Z,21.98
2018-10-16T13:15:25.428Z,21.70
2018-10-16T13:17:54.380Z,21.86
2018-10-16T13:20:23.351Z,22.11
2018-10-16T13:22:52.428Z,22.00
2018-10-16T13:25:21.526Z,22.00
2018-10-16T13:27:50.521Z,23.00
2018-10-16T13:30:20.191Z,23.87
2018-10-16T13:32:50.270Z,24.68
2018-10-16T13:35:20.423Z,24.96
2018-10-16T13:37:49.923Z,25.45
2018-10-16T13:40:18.870Z,25.29
2018-10-16T13:42:48.067Z,25.81
2018-10-16T13:45:17.906Z,25.41
2018-10-16T13:47:46.935Z,24.32
2018-10-16T13:50:17.084Z,23.71
2018-10-16T13:52:46.561Z,23.76
2018-10-16T13:55:15.790Z,24.37
2018-10-16T13:57:45.085Z,24.48
2018-10-16T14:00:18.912Z,24.69
2018-10-16T14:02:49.066Z,24.74
2018-10-16T14:05:18.159Z,24.58
2018-10-16T14:07:47.191Z,24.35
2018-10-16T14:10:16.883Z,25.24
2018-10-16T14:12:46.841Z,25.35
2018-10-16T14:15:16.309Z,24.36
2018-10-16T14:17:45.490Z,24.41
2018-10-16T14:20:14.628Z,24.41
2018-10-16T14:22:44.004Z,23.83
2018-10-16T14:25:15.528Z,24.10
2018-10-16T14:27:44.624Z,24.20
2018-10-16T14:30:14.824Z,23.96
2018-10-16T14:32:44.201Z,24.22
2018-10-16T14:35:13.738Z,24.20
2018-10-16T14:37:42.744Z,23.61
2018-10-16T14:40:13.918Z,22.84
2018-10-16T14:42:43.222Z,23.51
2018-10-16T14:45:13.159Z,23.30
2018-10-16T14:47:43.432Z,23.12
2018-10-16T14:50:13.813Z,23.10
2018-10-16T14:52:42.863Z,23.18
2018-10-16T14:55:11.950Z,22.99
2018-10-16T14:57:41.063Z,22.58
2018-10-16T15:00:11.795Z,22.03
2018-10-16T15:02:42.078Z,21.47
2018-10-16T15:05:12.103Z,21.21
2018-10-16T15:07:41.191Z,20.78
2018-10-16T15:10:13.311Z,20.59
2018-10-16T15:12:42.387Z,20.29
2018-10-16T15:15:11.439Z,20.23
2018-10-16T15:17:40.447Z,20.06
2018-10-16T15:20:12.053Z,19.85
2018-10-16T15:22:41.100Z,19.67
2018-10-16T15:25:10.744Z,19.52
2018-10-16T15:27:39.780Z,19.40
2018-10-16T15:30:09.678Z,19.22
2018-10-16T15:32:38.864Z,19.16
2018-10-16T15:35:14.654Z,19.11
2018-10-16T15:37:43.722Z,18.96
2018-10-16T15:40:12.711Z,18.88
2018-10-16T15:42:43.764Z,18.82
2018-10-16T15:45:13.234Z,18.75
2018-10-16T15:47:42.785Z,18.65
2018-10-16T15:50:12.469Z,18.59
2018-10-16T15:52:41.440Z,18.49
2018-10-16T15:55:11.510Z,18.49
2018-10-16T15:57:40.661Z,18.46
2018-10-16T16:00:13.206Z,18.34
2018-10-16T16:02:42.332Z,18.34
2018-10-16T16:05:11.303Z,18.33
2018-10-16T16:07:48.097Z,18.28
2018-10-16T16:10:17.291Z,18.25
2018-10-16T16:12:46.229Z,18.21
2018-10-16T16:15:16.629Z,18.19
2018-10-16T16:17:45.659Z,18.16
2018-10-16T16:20:15.586Z,18.12
2018-10-16T16:22:45.026Z,18.13
2018-10-16T16:25:15.129Z,18.12
2018-10-16T16:27:44.060Z,18.10
2018-10-16T16:30:15.339Z,18.01
2018-10-16T16:32:44.321Z,18.04
2018-10-16T16:35:13.416Z,18.02
2018-10-16T16:37:42.402Z,17.98
2018-10-16T16:40:12.891Z,17.91
2018-10-16T16:42:41.894Z,17.97
2018-10-16T16:45:11.611Z,17.98
2018-10-16T16:47:40.766Z,17.92
2018-10-16T16:50:12.604Z,17.91
2018-10-16T16:52:43.740Z,17.88
2018-10-16T16:55:14.143Z,17.78
2018-10-16T16:57:44.774Z,17.71
2018-10-16T17:00:14.856Z,17.73
2018-10-16T17:02:45.108Z,17.63
2018-10-16T17:05:14.740Z,17.60
2018-10-16T17:07:44.130Z,17.55
2018-10-16T17:10:13.214Z,17.45
2018-10-16T17:12:42.494Z,17.24
2018-10-16T17:17:35.476Z,17.12
2018-10-16T17:20:04.523Z,17.00
2018-10-16T17:22:33.495Z,16.89
2018-10-16T17:25:02.622Z,16.81
2018-10-16T17:27:31.521Z,16.78
2018-10-16T17:30:00.684Z,16.62
2018-10-16T17:32:31.157Z,16.57
2018-10-16T17:35:00.098Z,16.52
2018-10-16T17:37:29.235Z,16.46
2018-10-16T17:39:58.192Z,16.45
2018-10-16T17:42:27.099Z,16.44
2018-10-16T17:44:56.141Z,16.42
2018-10-16T17:47:26.357Z,16.42
2018-10-16T17:49:55.358Z,16.37
2018-10-16T17:52:24.282Z,16.32
2018-10-16T17:54:54.658Z,16.30
2018-10-16T17:57:23.635Z,16.29
2018-10-16T17:59:52.729Z,16.32
2018-10-16T18:02:21.785Z,16.32
2018-10-16T18:04:51.005Z,16.24
2018-10-16T18:07:19.966Z,16.21
2018-10-16T18:09:48.925Z,16.18
2018-10-16T18:12:17.931Z,16.15
2018-10-16T18:14:46.872Z,16.20
2018-10-16T18:17:15.832Z,16.21
2018-10-16T18:19:44.890Z,16.24
2018-10-16T18:22:13.875Z,16.31
2018-10-16T18:24:44.210Z,16.27
2018-10-16T18:27:13.363Z,16.29
2018-10-16T18:29:42.327Z,16.28
2018-10-16T18:32:11.222Z,16.26
2018-10-16T18:34:41.458Z,16.19
2018-10-16T18:37:10.545Z,16.18
2018-10-16T18:39:39.538Z,16.16
2018-10-16T18:42:08.783Z,16.09
2018-10-16T18:44:37.780Z,16.07
2018-10-16T18:47:06.924Z,16.01
2018-10-16T18:49:35.916Z,15.91
2018-10-16T18:52:05.241Z,15.90
2018-10-16T18:54:34.285Z,15.88
2018-10-16T18:57:04.529Z,15.91
2018-10-16T18:59:33.499Z,15.86
2018-10-16T19:02:02.587Z,15.85
2018-10-16T19:04:33.025Z,15.90
2018-10-16T19:07:02.508Z,15.81
2018-10-16T19:09:32.810Z,15.83
2018-10-16T19:12:03.053Z,15.68
2018-10-16T19:14:32.023Z,15.77
2018-10-16T19:17:00.935Z,15.84
2018-10-16T19:19:29.959Z,15.88
2018-10-16T19:21:58.985Z,15.95
2018-10-16T19:24:28.042Z,15.89
2018-10-16T19:26:57.060Z,15.83
2018-10-16T19:29:26.054Z,15.77
2018-10-16T19:31:55.108Z,15.75
2018-10-16T19:34:24.186Z,15.73
2018-10-16T19:36:53.488Z,15.71
2018-10-16T19:39:22.510Z,15.71
2018-10-16T19:41:51.467Z,15.73
2018-10-16T19:44:20.381Z,15.55
2018-10-16T19:46:50.620Z,15.57
2018-10-16T19:49:19.516Z,15.48
2018-10-16T19:51:48.477Z,15.38
2018-10-16T19:54:18.719Z,15.53
2018-10-16T19:56:47.663Z,15.58
2018-10-16T19:59:16.599Z,15.66
2018-10-16T20:01:45.649Z,15.63
2018-10-16T20:04:14.604Z,15.72
2018-10-16T20:06:43.533Z,15.73
2018-10-16T20:09:13.910Z,15.74
2018-10-16T20:11:42.830Z,15.72
2018-10-16T20:14:11.933Z,15.78
2018-10-16T20:16:40.829Z,15.77
2018-10-16T20:19:09.816Z,15.59
2018-10-16T20:21:38.773Z,15.46
2018-10-16T20:24:09.134Z,15.37
2018-10-16T20:26:38.119Z,15.20
2018-10-16T20:29:07.067Z,15.18
2018-10-16T20:31:36.046Z,15.16
2018-10-16T20:34:05.064Z,15.11
2018-10-16T20:36:34.075Z,15.20
2018-10-16T20:39:03.222Z,15.28
2018-10-16T20:41:32.131Z,15.24
2018-10-16T20:44:01.087Z,15.52
2018-10-16T20:46:30.073Z,15.72
2018-10-16T20:48:59.070Z,15.82
2018-10-16T20:51:28.014Z,16.00
2018-10-16T20:53:57.036Z,15.99
2018-10-16T20:56:25.969Z,16.04
2018-10-16T20:58:55.034Z,16.07
2018-10-16T21:01:25.573Z,16.00
2018-10-16T21:03:54.441Z,15.82
2018-10-16T21:06:23.433Z,15.78
2018-10-16T21:08:52.204Z,15.50
2018-10-16T21:11:22.462Z,14.80
2018-10-16T21:13:51.292Z,14.57
2018-10-16T21:16:20.171Z,14.73
2018-10-16T21:18:48.986Z,14.73
2018-10-16T21:21:18.120Z,14.65
2018-10-16T21:23:46.996Z,14.56
2018-10-16T21:26:15.946Z,14.58
2018-10-16T21:28:44.838Z,14.66
2018-10-16T21:31:13.821Z,14.65
2018-10-16T21:33:42.645Z,14.49
2018-10-16T21:36:11.543Z,14.40
2018-10-16T21:38:40.430Z,14.30
2018-10-16T21:41:09.370Z,14.30
2018-10-16T21:43:38.192Z,14.41
2018-10-16T21:46:07.431Z,14.45
2018-10-16T21:48:36.340Z,14.47
2018-10-16T21:51:05.246Z,14.52
2018-10-16T21:53:34.116Z,14.59
2018-10-16T21:56:03.021Z,14.50
2018-10-16T21:58:31.862Z,14.45
2018-10-16T22:01:06.073Z,14.34
2018-10-16T22:03:34.834Z,14.35
2018-10-16T22:06:03.726Z,14.24
2018-10-16T22:08:32.595Z,14.23
2018-10-16T22:11:01.473Z,14.23
2018-10-16T22:13:30.250Z,14.10
2018-10-16T22:15:59.212Z,14.11
2018-10-16T22:18:27.994Z,13.93
2018-10-16T22:20:56.762Z,13.81
2018-10-16T22:23:25.620Z,13.77
2018-10-16T22:25:54.426Z,13.66
2018-10-16T22:28:23.198Z,13.63
2018-10-16T22:30:52.137Z,13.57
2018-10-16T22:33:20.951Z,13.49
2018-10-16T22:35:49.743Z,13.45
2018-10-16T22:38:18.646Z,13.47
2018-10-16T22:40:47.447Z,13.52
2018-10-16T22:43:16.424Z,13.54
2018-10-16T22:45:45.187Z,13.53
2018-10-16T22:48:13.975Z,13.43
2018-10-16T22:50:42.809Z,13.37
2018-10-16T22:53:11.658Z,13.41
2018-10-16T22:55:40.411Z,13.45
2018-10-16T22:58:09.303Z,13.37
2018-10-16T23:00:38.115Z,13.39
2018-10-16T23:03:06.914Z,13.34
2018-10-16T23:05:35.774Z,13.26
2018-10-16T23:08:04.762Z,13.28
2018-10-16T23:10:33.530Z,13.28
2018-10-16T23:13:06.256Z,13.38
2018-10-16T23:15:35.302Z,13.68
2018-10-16T23:18:04.605Z,13.98
2018-10-16T23:20:33.804Z,14.14
2018-10-16T23:23:02.670Z,14.15
2018-10-16T23:25:31.496Z,14.10
2018-10-16T23:28:00.346Z,13.97
2018-10-16T23:30:29.155Z,13.88
2018-10-16T23:32:58.011Z,13.74
2018-10-16T23:35:26.927Z,13.79
2018-10-16T23:37:55.850Z,13.78
2018-10-16T23:40:24.852Z,13.83
2018-10-16T23:42:53.709Z,14.00
2018-10-16T23:45:22.574Z,13.88
2018-10-16T23:47:51.421Z,13.74
2018-10-16T23:50:20.330Z,13.58
2018-10-16T23:52:49.173Z,13.54
2018-10-16T23:55:18.085Z,13.40
2018-10-16T23:57:46.986Z,13.53
